createdAt,value
2022-09-15T00:01:12.362Z,18.10
2022-09-15T00:03:41.113Z,18.10
2022-09-15T00:06:10.044Z,18.10
2022-09-15T00:08:38.270Z,18.10
2022-09-15T00:11:14.895Z,18.10
2022-09-15T00:13:42.757Z,18.10
2022-09-15T00:16:14.811Z,18.10
2022-09-15T00:18:44.215Z,18.10
2022-09-15T00:21:17.021Z,18.10
2022-09-15T00:23:44.865Z,18.10
2022-09-15T00:26:15.817Z,18.10
2022-09-15T00:28:43.567Z,18.00
2022-09-15T00:31:14.474Z,18.00
2022-09-15T00:33:42.628Z,18.00
2022-09-15T00:36:12.024Z,18.00
2022-09-15T00:38:39.891Z,18.00
2022-09-15T00:41:09.876Z,18.00
2022-09-15T00:43:55.566Z,18.00
2022-09-15T00:46:25.289Z,18.00
2022-09-15T00:49:07.522Z,18.00
2022-09-15T00:51:45.379Z,18.00
2022-09-15T00:54:19.019Z,18.00
2022-09-15T00:56:49.453Z,18.00
2022-09-15T00:59:21.360Z,17.90
2022-09-15T01:01:57.329Z,18.00
2022-09-15T01:04:25.009Z,18.00
2022-09-15T01:06:58.345Z,18.00
2022-09-15T01:09:36.223Z,17.90
2022-09-15T01:12:04.011Z,18.00
2022-09-15T01:14:31.592Z,18.00
2022-09-15T01:17:12.057Z,17.90
2022-09-15T01:20:30.279Z,17.90
2022-09-15T01:23:22.297Z,17.80
2022-09-15T01:26:07.817Z,17.80
2022-09-15T01:28:53.181Z,17.70
2022-09-15T01:32:04.301Z,17.70
2022-09-15T01:34:40.838Z,17.70
2022-09-15T01:37:17.226Z,17.70
2022-09-15T01:39:50.098Z,17.70
2022-09-15T01:42:19.935Z,17.60
2022-09-15T01:44:59.317Z,17.60
2022-09-15T01:47:29.865Z,17.50
2022-09-15T01:50:11.784Z,17.40
2022-09-15T01:52:43.873Z,17.30
2022-09-15T01:55:18.148Z,17.20
2022-09-15T01:57:46.326Z,17.20
2022-09-15T02:00:14.243Z,17.10
2022-09-15T02:02:48.503Z,17.10
2022-09-15T02:05:34.091Z,17.10
2022-09-15T02:08:19.920Z,17.10
2022-09-15T02:10:53.482Z,17.00
2022-09-15T02:13:39.780Z,16.90
2022-09-15T02:16:19.933Z,16.80
2022-09-15T02:19:11.103Z,16.80
2022-09-15T02:21:47.925Z,16.70
2022-09-15T02:24:20.730Z,16.60
2022-09-15T02:26:51.128Z,16.50
2022-09-15T02:29:21.179Z,16.50
2022-09-15T02:31:52.510Z,16.40
2022-09-15T02:34:25.718Z,16.40
2022-09-15T02:36:55.122Z,16.30
2022-09-15T02:39:27.907Z,16.20
2022-09-15T02:41:55.563Z,16.20
2022-09-15T02:44:23.383Z,16.20
2022-09-15T02:46:51.352Z,16.10
2022-09-15T02:49:20.068Z,16.10
2022-09-15T02:51:47.955Z,16.10
2022-09-15T02:54:15.573Z,16.00
2022-09-15T02:56:43.507Z,16.00
2022-09-15T02:59:11.075Z,16.00
2022-09-15T03:01:38.995Z,15.90
2022-09-15T03:04:07.147Z,15.90
2022-09-15T03:06:35.169Z,15.90
2022-09-15T03:09:06.514Z,15.90
2022-09-15T03:11:35.596Z,15.80
2022-09-15T03:14:05.963Z,15.80
2022-09-15T03:16:34.789Z,15.80
2022-09-15T03:19:02.696Z,15.80
2022-09-15T03:21:30.581Z,15.70
2022-09-15T03:23:59.133Z,15.70
2022-09-15T03:26:26.787Z,15.60
2022-09-15T03:28:54.389Z,15.60
2022-09-15T03:31:22.845Z,15.60
2022-09-15T03:33:53.281Z,15.60
2022-09-15T03:36:20.876Z,15.50
2022-09-15T03:38:48.442Z,15.50
2022-09-15T03:41:16.021Z,15.50
2022-09-15T03:43:43.580Z,15.50
2022-09-15T03:46:11.926Z,15.50
2022-09-15T03:48:40.536Z,15.40
2022-09-15T03:51:10.468Z,15.50
2022-09-15T03:53:40.668Z,15.40
2022-09-15T03:56:12.123Z,15.40
2022-09-15T03:58:40.121Z,15.30
2022-09-15T04:01:07.761Z,15.40
2022-09-15T04:03:38.798Z,15.40
2022-09-15T04:06:11.607Z,15.30
2022-09-15T04:08:39.204Z,15.30
2022-09-15T04:11:08.623Z,15.30
2022-09-15T04:13:38.005Z,15.30
2022-09-15T04:16:08.871Z,15.30
2022-09-15T04:18:36.637Z,15.30
2022-09-15T04:21:08.273Z,15.30
2022-09-15T04:23:36.029Z,15.30
2022-09-15T04:26:10.003Z,15.30
2022-09-15T04:28:38.719Z,15.30
2022-09-15T04:31:09.801Z,15.30
2022-09-15T04:33:38.321Z,15.30
2022-09-15T04:36:09.065Z,15.30
2022-09-15T04:38:37.246Z,15.30
2022-09-15T04:41:06.062Z,15.30
2022-09-15T04:43:34.077Z,15.30
2022-09-15T04:46:01.819Z,15.30
2022-09-15T04:48:31.596Z,15.20
2022-09-15T04:51:03.788Z,15.20
2022-09-15T04:53:31.588Z,15.20
2022-09-15T04:56:04.760Z,15.30
2022-09-15T04:58:43.293Z,15.30
2022-09-15T05:01:16.963Z,15.30
2022-09-15T05:03:46.380Z,15.30
2022-09-15T05:06:21.134Z,15.30
2022-09-15T05:08:50.463Z,15.30
2022-09-15T05:11:19.334Z,15.30
2022-09-15T05:13:47.974Z,15.30
2022-09-15T05:16:19.831Z,15.30
2022-09-15T05:18:50.039Z,15.30
2022-09-15T05:21:19.923Z,15.30
2022-09-15T05:23:48.408Z,15.30
2022-09-15T05:26:18.731Z,15.30
2022-09-15T05:28:46.638Z,15.30
2022-09-15T05:31:19.641Z,15.30
2022-09-15T05:33:48.669Z,15.30
2022-09-15T05:36:18.502Z,15.40
2022-09-15T05:38:46.107Z,15.30
2022-09-15T05:41:18.202Z,15.40
2022-09-15T05:43:47.617Z,15.40
2022-09-15T05:46:16.761Z,15.40
2022-09-15T05:48:45.234Z,15.40
2022-09-15T05:51:13.578Z,15.40
2022-09-15T05:53:41.591Z,15.40
2022-09-15T05:56:13.644Z,15.40
2022-09-15T05:58:43.079Z,15.40
2022-09-15T06:01:36.871Z,15.50
2022-09-15T06:04:04.835Z,15.60
2022-09-15T06:06:33.076Z,15.50
2022-09-15T06:09:01.780Z,15.60
2022-09-15T06:11:31.358Z,15.70
2022-09-15T06:14:00.401Z,15.60
2022-09-15T06:16:30.930Z,15.70
2022-09-15T06:18:59.668Z,15.80
2022-09-15T06:21:34.648Z,15.80
2022-09-15T06:24:05.969Z,15.80
2022-09-15T06:26:34.184Z,15.90
2022-09-15T06:29:03.826Z,16.00
2022-09-15T06:31:33.415Z,16.00
2022-09-15T06:34:01.221Z,16.00
2022-09-15T06:36:30.619Z,16.10
2022-09-15T06:38:58.941Z,16.20
2022-09-15T06:41:33.041Z,16.20
2022-09-15T06:44:10.501Z,16.30
2022-09-15T06:46:38.666Z,16.20
2022-09-15T06:49:07.054Z,16.20
2022-09-15T06:51:36.141Z,16.30
2022-09-15T06:54:05.415Z,16.40
2022-09-15T06:56:37.866Z,16.30
2022-09-15T06:59:06.643Z,16.40
2022-09-15T07:01:34.274Z,16.50
2022-09-15T07:04:05.573Z,16.40
2022-09-15T07:06:33.886Z,16.50
2022-09-15T07:09:04.580Z,16.50
2022-09-15T07:11:33.080Z,16.40
2022-09-15T07:14:00.814Z,16.50
2022-09-15T07:16:29.001Z,16.50
2022-09-15T07:18:57.739Z,16.60
2022-09-15T07:21:25.292Z,16.80
2022-09-15T07:23:53.112Z,16.90
2022-09-15T07:26:21.772Z,17.00
2022-09-15T07:28:51.744Z,17.10
2022-09-15T07:31:21.353Z,17.30
2022-09-15T07:33:49.608Z,17.30
2022-09-15T07:36:17.489Z,17.40
2022-09-15T07:38:50.582Z,17.40
2022-09-15T07:41:23.497Z,17.40
2022-09-15T07:43:56.424Z,17.30
2022-09-15T07:46:25.104Z,17.20
2022-09-15T07:48:56.499Z,17.20
2022-09-15T07:51:24.876Z,17.30
2022-09-15T07:53:53.323Z,17.50
2022-09-15T07:56:21.664Z,17.50
2022-09-15T07:58:52.624Z,17.40
2022-09-15T08:01:22.383Z,17.50
2022-09-15T08:03:52.316Z,17.50
2022-09-15T08:06:22.621Z,17.20
2022-09-15T08:08:55.079Z,17.20
2022-09-15T08:11:24.144Z,17.40
2022-09-15T08:13:52.458Z,17.50
2022-09-15T08:16:23.258Z,17.70
2022-09-15T08:18:53.856Z,17.70
2022-09-15T08:21:22.148Z,17.70
2022-09-15T08:23:57.548Z,17.50
2022-09-15T08:26:27.157Z,17.60
2022-09-15T08:28:55.207Z,17.60
2022-09-15T08:31:24.297Z,17.50
2022-09-15T08:33:54.976Z,17.50
2022-09-15T08:36:24.458Z,17.50
2022-09-15T08:38:52.127Z,17.30
2022-09-15T08:41:32.284Z,17.40
2022-09-15T08:44:20.236Z,17.70
2022-09-15T08:47:15.086Z,17.70
2022-09-15T08:50:05.082Z,17.90
2022-09-15T08:52:46.550Z,17.80
2022-09-15T08:55:43.100Z,17.80
2022-09-15T08:58:21.453Z,17.80
2022-09-15T09:00:52.189Z,18.10
2022-09-15T09:03:22.577Z,18.00
2022-09-15T09:05:54.809Z,18.20
2022-09-15T09:08:37.401Z,18.50
2022-09-15T09:11:23.434Z,18.50
2022-09-15T09:14:12.814Z,18.70
2022-09-15T09:16:46.146Z,18.80
2022-09-15T09:19:33.700Z,18.80
2022-09-15T09:22:15.721Z,18.70
2022-09-15T09:24:55.503Z,18.80
2022-09-15T09:27:31.636Z,19.00
2022-09-15T09:30:28.260Z,18.80
2022-09-15T09:33:24.012Z,18.60
2022-09-15T09:35:52.959Z,18.70
2022-09-15T09:38:25.037Z,19.00
2022-09-15T09:40:53.144Z,19.30
2022-09-15T09:43:20.790Z,19.10
2022-09-15T09:45:48.470Z,19.30
2022-09-15T09:48:20.454Z,19.40
2022-09-15T09:50:49.575Z,19.50
2022-09-15T09:53:20.357Z,19.70
2022-09-15T09:55:48.071Z,19.60
2022-09-15T09:58:21.051Z,19.60
2022-09-15T10:00:49.202Z,19.60
2022-09-15T10:03:16.819Z,19.90
2022-09-15T10:05:45.725Z,20.20
2022-09-15T10:08:20.800Z,20.50
2022-09-15T10:10:58.571Z,20.90
2022-09-15T10:13:26.389Z,21.20
2022-09-15T10:15:58.120Z,21.40
2022-09-15T10:18:38.701Z,21.40
2022-09-15T10:21:08.801Z,21.00
2022-09-15T10:23:36.595Z,20.90
2022-09-15T10:26:16.144Z,20.60
2022-09-15T10:28:44.841Z,20.10
2022-09-15T10:31:26.618Z,19.60
2022-09-15T10:33:54.308Z,19.50
2022-09-15T10:36:39.943Z,19.40
2022-09-15T10:39:22.535Z,19.50
2022-09-15T10:42:25.227Z,19.80
2022-09-15T10:45:22.083Z,19.80
2022-09-15T10:48:07.004Z,20.00
2022-09-15T10:51:08.187Z,20.30
2022-09-15T10:53:44.805Z,20.50
2022-09-15T10:56:35.456Z,21.10
2022-09-15T10:59:17.758Z,21.40
2022-09-15T11:02:00.057Z,21.50
2022-09-15T11:04:39.466Z,21.40
2022-09-15T11:07:39.445Z,21.40
2022-09-15T11:10:36.698Z,22.10
2022-09-15T11:14:04.664Z,23.60
2022-09-15T11:16:44.712Z,25.20
2022-09-15T11:19:30.619Z,27.10
2022-09-15T11:22:13.178Z,28.10
2022-09-15T11:24:40.697Z,27.20
2022-09-15T11:27:11.291Z,27.20
2022-09-15T11:29:47.877Z,26.50
2022-09-15T11:32:22.018Z,25.00
2022-09-15T11:34:54.303Z,23.70
2022-09-15T11:37:27.569Z,23.10
2022-09-15T11:40:13.904Z,23.80
2022-09-15T11:43:04.663Z,24.00
2022-09-15T11:45:42.429Z,23.00
2022-09-15T11:48:19.576Z,21.90
2022-09-15T11:50:49.725Z,21.10
2022-09-15T11:53:37.584Z,21.10
2022-09-15T11:56:08.212Z,21.20
2022-09-15T11:59:05.347Z,21.40
2022-09-15T12:01:39.014Z,22.10
2022-09-15T12:04:18.305Z,22.80
2022-09-15T12:06:54.193Z,24.20
2022-09-15T12:09:22.506Z,26.50
2022-09-15T12:12:00.689Z,27.20
2022-09-15T12:14:36.338Z,27.00
2022-09-15T12:17:07.055Z,25.70
2022-09-15T12:20:00.458Z,25.40
2022-09-15T12:22:46.629Z,24.40
2022-09-15T12:25:20.225Z,23.50
2022-09-15T12:28:27.913Z,22.80
2022-09-15T12:31:30.506Z,22.40
2022-09-15T12:34:34.595Z,22.20
2022-09-15T12:37:15.787Z,21.90
2022-09-15T12:39:53.708Z,21.60
2022-09-15T12:42:31.414Z,21.30
2022-09-15T12:45:19.648Z,21.50
2022-09-15T12:48:19.106Z,23.10
2022-09-15T12:51:22.737Z,26.70
2022-09-15T12:53:57.981Z,30.00
2022-09-15T12:56:31.729Z,29.70
2022-09-15T12:59:14.528Z,28.60
2022-09-15T13:02:03.138Z,27.20
2022-09-15T13:04:45.417Z,25.60
2022-09-15T13:07:16.049Z,25.20
2022-09-15T13:10:26.650Z,26.40
2022-09-15T13:13:22.343Z,27.60
2022-09-15T13:22:16.234Z,29.10
2022-09-15T13:25:05.532Z,29.80
2022-09-15T13:27:44.212Z,32.10
2022-09-15T13:30:21.296Z,33.80
2022-09-15T13:33:13.924Z,33.30
2022-09-15T13:35:47.437Z,31.00
2022-09-15T13:38:56.549Z,28.30
2022-09-15T13:42:01.499Z,26.30
2022-09-15T13:44:38.439Z,25.00
2022-09-15T13:47:33.508Z,24.00
2022-09-15T13:50:38.981Z,23.70
2022-09-15T13:53:24.146Z,24.20
2022-09-15T13:55:54.577Z,24.80
2022-09-15T14:01:15.211Z,27.20
2022-09-15T14:04:03.698Z,27.40
2022-09-15T14:06:37.737Z,26.80
2022-09-15T14:09:26.727Z,26.30
2022-09-15T14:11:59.255Z,25.40
2022-09-15T14:14:35.856Z,24.50
2022-09-15T14:17:04.337Z,24.30
2022-09-15T14:19:35.252Z,24.30
2022-09-15T14:22:18.769Z,23.80
2022-09-15T14:24:47.287Z,23.50
2022-09-15T14:27:21.959Z,23.30
2022-09-15T14:29:54.410Z,23.20
2022-09-15T14:32:22.077Z,23.50
2022-09-15T14:34:50.951Z,23.90
2022-09-15T14:37:31.657Z,24.30
2022-09-15T14:40:03.057Z,24.80
2022-09-15T14:42:40.907Z,24.80
2022-09-15T14:48:07.238Z,24.90
2022-09-15T14:50:35.784Z,25.00
2022-09-15T14:53:16.950Z,25.40
2022-09-15T14:56:21.963Z,25.30
2022-09-15T14:58:56.104Z,25.10
2022-09-15T15:01:38.387Z,24.90
2022-09-15T15:04:12.549Z,24.90
2022-09-15T15:06:50.151Z,24.90
2022-09-15T15:09:21.454Z,24.60
2022-09-15T15:11:53.746Z,24.20
2022-09-15T15:17:05.946Z,23.50
2022-09-15T15:19:37.798Z,23.30
2022-09-15T15:22:20.645Z,23.20
2022-09-15T15:24:51.034Z,23.30
2022-09-15T15:27:33.986Z,23.30
2022-09-15T15:30:23.875Z,23.00
2022-09-15T15:32:51.940Z,22.80
2022-09-15T15:35:20.679Z,22.90
2022-09-15T15:37:49.359Z,23.30
2022-09-15T15:40:23.174Z,23.70
2022-09-15T15:43:05.862Z,23.70
2022-09-15T15:45:35.985Z,23.90
2022-09-15T15:48:04.409Z,23.60
2022-09-15T15:50:32.686Z,23.30
2022-09-15T15:53:00.983Z,23.20
2022-09-15T15:55:40.976Z,22.90
2022-09-15T15:58:12.965Z,23.40
2022-09-15T16:00:46.652Z,23.70
2022-09-15T16:03:15.820Z,23.30
2022-09-15T16:05:49.171Z,23.10
2022-09-15T16:08:39.850Z,22.60
2022-09-15T16:11:14.786Z,22.20
2022-09-15T16:13:42.988Z,22.00
2022-09-15T16:16:22.468Z,21.80
2022-09-15T16:18:50.559Z,21.10
2022-09-15T16:21:21.152Z,20.80
2022-09-15T16:23:48.738Z,20.80
2022-09-15T16:26:20.453Z,20.60
2022-09-15T16:28:48.106Z,20.60
2022-09-15T16:31:16.297Z,20.50
2022-09-15T16:33:44.061Z,20.40
2022-09-15T16:36:16.617Z,20.30
2022-09-15T16:38:45.044Z,20.20
2022-09-15T16:41:15.783Z,20.10
2022-09-15T16:43:44.508Z,20.10
2022-09-15T16:46:23.475Z,20.00
2022-09-15T16:48:51.717Z,20.00
2022-09-15T16:51:28.694Z,19.90
2022-09-15T16:53:58.578Z,19.90
2022-09-15T16:56:27.068Z,19.90
2022-09-15T16:59:00.210Z,19.90
2022-09-15T17:01:28.498Z,19.80
2022-09-15T17:03:59.317Z,19.80
2022-09-15T17:06:26.944Z,19.70
2022-09-15T17:08:55.693Z,19.70
2022-09-15T17:11:25.421Z,19.60
2022-09-15T17:13:55.294Z,19.60
2022-09-15T17:16:23.125Z,19.50
2022-09-15T17:18:53.426Z,19.40
2022-09-15T17:21:22.118Z,19.40
2022-09-15T17:24:05.235Z,19.30
2022-09-15T17:26:38.940Z,19.20
2022-09-15T17:29:22.177Z,19.20
2022-09-15T17:31:58.116Z,19.10
2022-09-15T17:34:34.841Z,19.10
2022-09-15T17:37:02.446Z,19.10
2022-09-15T17:39:30.040Z,19.00
2022-09-15T17:41:57.627Z,19.00
2022-09-15T17:44:25.260Z,18.90
2022-09-15T17:46:54.150Z,19.00
2022-09-15T17:49:22.252Z,18.90
2022-09-15T17:51:49.934Z,18.80
2022-09-15T17:54:17.485Z,18.80
2022-09-15T17:56:45.031Z,18.80
2022-09-15T17:59:15.696Z,18.80
2022-09-15T18:01:44.122Z,18.70
2022-09-15T18:04:11.867Z,18.70
2022-09-15T18:06:44.728Z,18.60
2022-09-15T18:09:14.822Z,18.40
2022-09-15T18:11:42.588Z,18.20
2022-09-15T18:14:11.094Z,18.10
2022-09-15T18:16:39.636Z,17.80
2022-09-15T18:19:07.970Z,17.70
2022-09-15T18:21:35.979Z,17.60
2022-09-15T18:24:03.846Z,17.60
2022-09-15T18:26:31.499Z,17.50
2022-09-15T18:28:59.865Z,17.50
2022-09-15T18:31:27.852Z,17.50
2022-09-15T18:33:55.536Z,17.50
2022-09-15T18:36:23.273Z,17.40
2022-09-15T18:38:50.923Z,17.40
2022-09-15T18:41:18.843Z,17.40
2022-09-15T18:43:52.412Z,17.40
2022-09-15T18:46:20.579Z,17.40
2022-09-15T18:48:48.236Z,17.40
2022-09-15T18:51:23.608Z,17.40
2022-09-15T18:53:54.248Z,17.40
2022-09-15T18:56:22.362Z,17.40
2022-09-15T18:58:53.730Z,17.30
2022-09-15T19:01:22.109Z,17.20
2022-09-15T19:03:49.760Z,17.20
2022-09-15T19:06:17.438Z,17.20
2022-09-15T19:08:45.114Z,17.30
2022-09-15T19:11:12.978Z,17.20
2022-09-15T19:13:40.814Z,17.20
2022-09-15T19:16:09.628Z,17.20
2022-09-15T19:18:37.467Z,17.20
2022-09-15T19:21:10.527Z,17.20
2022-09-15T19:23:39.157Z,17.20
2022-09-15T19:26:09.400Z,17.20
2022-09-15T19:28:36.998Z,17.20
2022-09-15T19:31:05.178Z,17.10
2022-09-15T19:33:32.847Z,17.10
2022-09-15T19:36:26.889Z,17.10
2022-09-15T19:38:54.419Z,17.00
2022-09-15T19:41:22.180Z,17.00
2022-09-15T19:43:49.766Z,17.00
2022-09-15T19:46:26.413Z,16.90
2022-09-15T19:48:54.651Z,16.80
2022-09-15T19:51:23.165Z,16.80
2022-09-15T19:53:54.809Z,16.80
2022-09-15T19:56:26.071Z,16.70
2022-09-15T19:58:55.848Z,16.70
2022-09-15T20:01:25.923Z,16.60
2022-09-15T20:03:56.110Z,16.50
2022-09-15T20:06:30.231Z,16.40
2022-09-15T20:09:00.163Z,16.40
2022-09-15T20:11:29.617Z,16.20
2022-09-15T20:13:57.787Z,16.10
2022-09-15T20:16:29.004Z,16.10
2022-09-15T20:18:57.681Z,16.10
2022-09-15T20:21:50.402Z,16.00
2022-09-15T20:24:23.567Z,16.00
2022-09-15T20:26:52.445Z,15.90
2022-09-15T20:29:21.201Z,15.90
2022-09-15T20:31:49.205Z,15.80
2022-09-15T20:34:22.945Z,15.80
2022-09-15T20:36:50.834Z,15.80
2022-09-15T20:39:22.095Z,15.80
2022-09-15T20:41:49.782Z,15.80
2022-09-15T20:44:17.509Z,15.80
2022-09-15T20:46:45.135Z,15.80
2022-09-15T20:49:12.889Z,15.80
2022-09-15T20:51:40.605Z,15.80
2022-09-15T20:54:09.306Z,15.80
2022-09-15T20:56:36.978Z,15.80
2022-09-15T20:59:06.086Z,15.80
2022-09-15T21:01:36.726Z,15.80
2022-09-15T21:04:09.015Z,15.90
2022-09-15T21:06:37.516Z,15.80
2022-09-15T21:09:05.955Z,15.80
2022-09-15T21:11:34.009Z,15.80
2022-09-15T21:14:02.034Z,15.70
2022-09-15T21:16:30.071Z,15.70
2022-09-15T21:18:58.920Z,15.70
2022-09-15T21:21:30.166Z,15.70
2022-09-15T21:24:03.588Z,15.80
2022-09-15T21:26:33.310Z,15.80
2022-09-15T21:29:01.565Z,15.70
2022-09-15T21:31:32.108Z,15.70
2022-09-15T21:34:00.399Z,15.70
2022-09-15T21:36:30.881Z,15.70
2022-09-15T21:38:59.560Z,15.60
2022-09-15T21:41:29.965Z,15.70
2022-09-15T21:43:59.200Z,15.70
2022-09-15T21:46:31.053Z,15.70
2022-09-15T21:48:59.915Z,15.70
2022-09-15T21:51:29.295Z,15.70
2022-09-15T21:53:58.811Z,15.80
2022-09-15T21:56:28.021Z,15.70
2022-09-15T21:58:55.770Z,15.70
2022-09-15T22:01:29.263Z,15.80
2022-09-15T22:03:59.546Z,15.80
2022-09-15T22:06:32.399Z,15.80
2022-09-15T22:09:01.569Z,15.70
2022-09-15T22:11:29.825Z,15.70
2022-09-15T22:13:57.558Z,15.70
2022-09-15T22:16:26.167Z,15.80
2022-09-15T22:18:54.503Z,15.80
2022-09-15T22:21:31.161Z,15.80
2022-09-15T22:23:59.590Z,15.80
2022-09-15T22:26:29.211Z,15.70
2022-09-15T22:28:58.634Z,15.80
2022-09-15T22:31:27.623Z,15.80
2022-09-15T22:33:56.025Z,15.80
2022-09-15T22:36:29.990Z,15.80
2022-09-15T22:39:05.032Z,15.80
2022-09-15T22:41:36.039Z,15.80
2022-09-15T22:44:05.225Z,15.80
2022-09-15T22:46:33.084Z,15.80
2022-09-15T22:49:00.780Z,15.80
2022-09-15T22:51:28.553Z,15.90
2022-09-15T22:53:57.217Z,15.90
2022-09-15T22:56:26.596Z,15.90
2022-09-15T22:58:55.611Z,16.00
2022-09-15T23:01:28.468Z,16.00
2022-09-15T23:03:59.042Z,16.00
2022-09-15T23:06:29.466Z,16.10
2022-09-15T23:08:59.108Z,16.10
2022-09-15T23:11:28.469Z,16.10
2022-09-15T23:13:56.619Z,16.10
2022-09-15T23:16:25.634Z,16.10
2022-09-15T23:18:53.919Z,16.00
2022-09-15T23:21:21.828Z,16.00
2022-09-15T23:23:50.027Z,16.00
2022-09-15T23:26:19.420Z,16.00
2022-09-15T23:28:47.846Z,15.90
2022-09-15T23:31:16.423Z,15.90
2022-09-15T23:33:44.807Z,16.00
2022-09-15T23:36:15.393Z,15.90
2022-09-15T23:38:45.040Z,15.90
2022-09-15T23:41:13.858Z,15.90
2022-09-15T23:43:41.646Z,15.90
2022-09-15T23:46:09.977Z,15.90
2022-09-15T23:48:37.912Z,15.90
2022-09-15T23:51:05.788Z,15.90
2022-09-15T23:53:34.160Z,15.90
2022-09-15T23:56:02.192Z,15.90
2022-09-15T23:58:30.041Z,15.90
